Terminal Aerodrome Forecast
Issued by NWS

Home | Current Version | Previous Version | Text Only | Print | Product List | Glossary On
Versions: 1 2 3 4 5 6 7 8 9 10 11 12 13 14 15 16
000
FTUS46 KSGX 180500
TAFSNA
TAF
KSNA 180520Z 1806/1906 16010KT P6SM OVC017
     FM182000 23009KT P6SM BKN022
     FM190200 23005KT P6SM BKN025=

USA.gov is the U.S. government's official web portal to all federal, state and local government web resources and services.